Time;durP1;ratioP1;P1;durP2;ratioP2;P2;SDS_P1;SDS_P2;PMS_P1;PMS_P2;Temp;Humidity;BMP_temperature;BMP_pressure;BME280_temperature;BME280_humidity;BME280_pressure;Samples;Min_cycle;Max_cycle;Signal;HPM_P1;HPM_P2
2023/02/17 00:01:23;;;;;;;13.48;12.27;;;;;;;11.98;100.00;101899.56;5228397;28;20032;-76
2023/02/17 00:03:55;;;;;;;13.40;12.20;;;;;;;11.77;100.00;101902.75;5231620;28;20028;-76
2023/02/17 00:06:28;;;;;;;14.38;13.07;;;;;;;11.87;100.00;101905.59;5251533;28;20032;-76
2023/02/17 00:09:00;;;;;;;15.25;13.85;;;;;;;11.80;100.00;101881.53;5245576;28;20043;-76
2023/02/17 00:11:32;;;;;;;17.58;15.93;;;;;;;11.89;100.00;101898.44;5249323;28;20033;-76
2023/02/17 00:14:04;;;;;;;19.85;17.92;;;;;;;11.91;100.00;101900.00;5248997;28;20410;-77
2023/02/17 00:16:35;;;;;;;19.40;17.70;;;;;;;11.95;100.00;101900.63;5250858;28;20029;-76
2023/02/17 00:19:22;;;;;;;21.83;19.92;;;;;;;11.93;100.00;101889.38;5251334;28;20035;-77
2023/02/17 00:21:59;;;;;;;24.08;21.88;;;;;;;12.00;100.00;101884.50;5247857;28;20037;-76
2023/02/17 00:24:32;;;;;;;26.38;24.00;;;;;;;11.98;100.00;101881.19;5246038;28;20029;-77
2023/02/17 00:27:04;;;;;;;26.23;23.83;;;;;;;11.91;100.00;101870.28;5252340;28;20025;-77
2023/02/17 00:29:36;;;;;;;25.52;23.10;;;;;;;11.97;100.00;101882.09;5229101;28;20021;-77
2023/02/17 00:32:09;;;;;;;24.73;22.42;;;;;;;11.97;100.00;101861.09;5249074;28;20047;-77
2023/02/17 00:34:40;;;;;;;;;;;;;;;12.49;100.00;101876.41;5245666;28;20143;-76
2023/02/17 00:37:11;;;;;;;20.37;18.37;;;;;;;11.89;100.00;101862.53;5248329;28;20429;-76
2023/02/17 00:39:43;;;;;;;21.50;19.52;;;;;;;11.97;100.00;101872.47;5250227;28;20316;-77
2023/02/17 00:42:14;;;;;;;19.60;17.75;;;;;;;11.99;100.00;101875.81;5246729;28;20025;-77
2023/02/17 00:44:45;;;;;;;16.95;15.32;;;;;;;11.93;100.00;101866.59;5243772;28;20017;-77
2023/02/17 00:47:16;;;;;;;15.57;14.07;;;;;;;11.97;100.00;101867.22;5247798;28;20048;-77
2023/02/17 00:49:48;;;;;;;14.25;12.98;;;;;;;11.95;100.00;101863.03;5247925;28;20024;-77
2023/02/17 00:52:19;;;;;;;12.32;11.13;;;;;;;11.98;100.00;101857.53;5246038;28;20041;-77
2023/02/17 00:54:50;;;;;;;10.95;9.98;;;;;;;11.96;100.00;101860.25;5246808;28;20032;-77
2023/02/17 00:57:22;;;;;;;11.13;10.13;;;;;;;11.96;100.00;101862.91;5230001;28;20406;-77
2023/02/17 00:59:53;;;;;;;9.93;8.93;;;;;;;11.96;100.00;101851.56;5240968;28;20029;-77
2023/02/17 01:02:25;;;;;;;8.77;7.88;;;;;;;11.94;100.00;101854.31;5246827;28;20033;-77
2023/02/17 01:04:56;;;;;;;7.32;6.63;;;;;;;11.97;100.00;101855.84;5245476;28;20470;-77
2023/02/17 01:07:27;;;;;;;6.80;6.20;;;;;;;11.98;100.00;101863.63;5246747;28;20028;-77
2023/02/17 01:09:59;;;;;;;6.68;5.18;;;;;;;12.02;100.00;101866.88;5245561;28;20479;-77
2023/02/17 01:12:30;;;;;;;6.68;6.07;;;;;;;11.99;100.00;101867.94;5245493;28;20134;-77
2023/02/17 01:15:02;;;;;;;6.72;6.13;;;;;;;12.04;100.00;101865.78;5249274;28;20028;-77
2023/02/17 01:17:33;;;;;;;7.47;6.78;;;;;;;12.07;100.00;101856.84;5241735;28;20025;-77
2023/02/17 01:20:05;;;;;;;7.03;6.43;;;;;;;12.03;100.00;101868.53;5243423;28;20029;-77
2023/02/17 01:22:38;;;;;;;7.45;6.75;;;;;;;12.05;100.00;101859.59;5244108;28;20060;-77
2023/02/17 01:25:09;;;;;;;8.55;7.68;;;;;;;12.08;100.00;101864.59;5248074;28;20377;-77
2023/02/17 01:27:41;;;;;;;7.90;7.22;;;;;;;11.99;100.00;101853.97;5241453;28;20033;-77
2023/02/17 01:30:13;;;;;;;7.78;7.07;;;;;;;11.96;100.00;101860.25;5245286;28;20029;-77
2023/02/17 01:32:44;;;;;;;7.93;7.13;;;;;;;12.04;100.00;101871.03;5242126;28;20099;-77
2023/02/17 01:35:15;;;;;;;7.32;6.65;;;;;;;11.95;100.00;101861.22;5247048;28;20032;-77
2023/02/17 01:37:47;;;;;;;7.82;7.13;;;;;;;12.02;100.00;101872.94;5246299;28;20387;-76
2023/02/17 01:40:18;;;;;;;7.78;7.07;;;;;;;12.02;100.00;101859.81;5248456;28;20040;-76
2023/02/17 01:42:49;;;;;;;7.25;6.55;;;;;;;12.04;100.00;101872.81;5241829;28;20099;-77
2023/02/17 01:45:20;;;;;;;8.43;7.45;;;;;;;11.99;100.00;101860.03;5244334;28;20180;-77
2023/02/17 01:48:07;;;;;;;6.60;6.03;;;;;;;12.11;100.00;101864.38;5244927;28;20487;-77
2023/02/17 01:50:48;;;;;;;7.10;6.50;;;;;;;11.91;100.00;101855.38;5245766;28;20036;-77
2023/02/17 01:53:26;;;;;;;8.32;7.53;;;;;;;11.98;100.00;101857.53;5242821;28;20155;-77
2023/02/17 01:55:58;;;;;;;8.60;7.80;;;;;;;11.86;100.00;101862.75;5233812;28;20502;-77
2023/02/17 01:58:30;;;;;;;8.75;7.95;;;;;;;11.91;100.00;101863.25;5225313;28;20040;-77
2023/02/17 02:01:03;;;;;;;9.13;8.25;;;;;;;11.84;100.00;101869.91;5223265;28;20072;-76
2023/02/17 02:03:36;;;;;;;9.88;8.88;;;;;;;11.86;100.00;101872.44;5226202;28;20029;-76
2023/02/17 02:06:12;;;;;;;10.40;8.77;;;;;;;11.91;100.00;101878.16;5223810;28;20475;-77
2023/02/17 02:09:01;;;;;;;10.23;9.23;;;;;;;12.04;100.00;101868.41;5223330;28;20033;-77
2023/02/17 02:11:34;;;;;;;9.85;8.95;;;;;;;11.82;100.00;101863.03;5223161;28;20025;-77
2023/02/17 02:14:07;;;;;;;10.68;9.70;;;;;;;11.86;100.00;101860.13;5222638;28;20038;-76
2023/02/17 02:16:44;;;;;;;;;;;;;;;12.46;100.00;101860.03;5223102;28;20048;-76
2023/02/17 02:19:50;;;;;;;11.32;10.10;;;;;;;12.14;100.00;101865.94;5223645;28;19917;-76
2023/02/17 02:22:49;;;;;;;10.93;9.93;;;;;;;12.03;100.00;101856.22;5225578;28;20037;-77
2023/02/17 02:25:58;;;;;;;11.80;10.73;;;;;;;12.00;100.00;101860.88;5222753;28;20557;-76
2023/02/17 02:28:58;;;;;;;11.80;10.68;;;;;;;11.84;100.00;101861.19;5223352;28;20037;-77
2023/02/17 02:32:00;;;;;;;12.25;11.05;;;;;;;12.01;100.00;101852.03;5227707;28;20474;-77
2023/02/17 02:34:46;;;;;;;11.65;10.55;;;;;;;12.01;100.00;101849.41;5221694;28;20549;-77
2023/02/17 02:37:25;;;;;;;12.77;11.57;;;;;;;11.83;100.00;101839.34;5222618;28;20063;-77
2023/02/17 02:40:02;;;;;;;11.98;10.82;;;;;;;11.80;100.00;101828.19;5220943;28;20076;-76
2023/02/17 02:42:34;;;;;;;11.40;10.25;;;;;;;11.78;100.00;101816.97;5223282;28;20044;-77
2023/02/17 02:45:09;;;;;;;11.68;10.57;;;;;;;11.86;100.00;101818.13;5221514;28;20406;-76
2023/02/17 02:47:47;;;;;;;10.60;9.60;;;;;;;11.94;100.00;101814.91;5225014;28;20021;-77
2023/02/17 02:50:30;;;;;;;11.27;10.18;;;;;;;11.84;100.00;101814.75;5236091;28;20049;-76
2023/02/17 02:53:17;;;;;;;12.63;10.70;;;;;;;11.88;100.00;101808.31;5222737;28;20030;-77
2023/02/17 02:56:12;;;;;;;11.90;10.73;;;;;;;12.06;100.00;101786.88;5232960;28;20513;-77
2023/02/17 02:58:59;;;;;;;12.60;11.40;;;;;;;11.99;100.00;101785.69;5243120;28;20479;-77
2023/02/17 03:01:42;;;;;;;12.52;11.23;;;;;;;11.83;100.00;101783.34;5247274;28;20029;-77
2023/02/17 03:04:18;;;;;;;12.27;11.07;;;;;;;11.85;100.00;101782.28;5250807;28;20032;-77
2023/02/17 03:07:00;;;;;;;11.73;10.52;;;;;;;11.92;100.00;101765.13;5248758;28;20514;-76
2023/02/17 03:09:33;;;;;;;11.20;10.10;;;;;;;11.79;100.00;101774.03;5226660;28;20093;-77
2023/02/17 03:12:05;;;;;;;10.95;9.85;;;;;;;11.77;100.00;101773.28;5249503;28;20025;-76
2023/02/17 03:14:37;;;;;;;8.50;7.60;;;;;;;11.75;100.00;101769.97;5246061;28;20029;-77
2023/02/17 03:17:09;;;;;;;8.27;7.43;;;;;;;11.71;100.00;101758.84;5244318;28;20022;-77
2023/02/17 03:19:41;;;;;;;9.13;7.32;;;;;;;11.57;100.00;101745.91;5249146;28;20283;-77
2023/02/17 03:22:20;;;;;;;9.32;6.55;;;;;;;11.82;100.00;101768.53;5250564;28;20029;-77
2023/02/17 03:24:52;;;;;;;7.65;6.93;;;;;;;11.68;100.00;101774.81;5249650;28;20031;-77
2023/02/17 03:27:23;;;;;;;7.18;6.47;;;;;;;11.61;100.00;101773.59;5247249;28;20037;-77
2023/02/17 03:29:54;;;;;;;6.50;5.90;;;;;;;11.67;100.00;101778.41;5248904;28;20033;-77
2023/02/17 03:32:26;;;;;;;6.65;6.05;;;;;;;11.68;100.00;101778.28;5250064;28;20112;-76
2023/02/17 03:34:57;;;;;;;6.40;5.80;;;;;;;11.68;100.00;101774.81;5247381;28;20033;-76
2023/02/17 03:37:28;;;;;;;7.00;6.28;;;;;;;11.77;100.00;101781.16;5247439;28;20021;-77
2023/02/17 03:40:00;;;;;;;6.18;5.57;;;;;;;11.72;100.00;101772.81;5249695;28;20062;-77
2023/02/17 03:42:31;;;;;;;6.55;5.85;;;;;;;11.78;100.00;101772.34;5242013;28;20108;-77
2023/02/17 03:45:03;;;;;;;6.00;5.25;;;;;;;11.72;100.00;101776.25;5248684;28;20047;-77
2023/02/17 03:47:34;;;;;;;6.82;6.10;;;;;;;11.65;100.00;101772.41;5248616;28;20029;-77
2023/02/17 03:50:06;;;;;;;6.15;5.55;;;;;;;11.62;100.00;101756.91;5243068;28;20042;-77
2023/02/17 03:52:37;;;;;;;6.28;5.57;;;;;;;11.65;100.00;101760.13;5248340;28;20032;-77
2023/02/17 03:55:09;;;;;;;5.85;5.20;;;;;;;11.65;100.00;101762.75;5244501;28;20057;-76
2023/02/17 03:57:40;;;;;;;5.68;5.18;;;;;;;11.73;100.00;101749.06;5242599;28;20033;-77
2023/02/17 04:00:12;;;;;;;5.35;4.47;;;;;;;11.64;100.00;101741.88;5242558;28;20033;-77
2023/02/17 04:02:44;;;;;;;6.38;5.72;;;;;;;11.67;100.00;101760.03;5245380;28;20440;-77
2023/02/17 04:05:15;;;;;;;5.97;4.75;;;;;;;11.67;100.00;101774.00;5229663;28;20025;-76
2023/02/17 04:07:46;;;;;;;6.00;4.70;;;;;;;11.62;100.00;101770.03;5248306;28;20021;-77
2023/02/17 04:10:18;;;;;;;7.07;4.95;;;;;;;11.60;100.00;101772.78;5248625;28;20151;-77
2023/02/17 04:12:49;;;;;;;5.07;4.57;;;;;;;11.57;100.00;101765.13;5247231;28;20013;-77
2023/02/17 04:15:20;;;;;;;4.40;4.00;;;;;;;11.58;100.00;101768.56;5248891;28;20303;-77
2023/02/17 04:17:52;;;;;;;6.15;4.05;;;;;;;11.60;100.00;101775.41;5245208;28;20052;-77
2023/02/17 04:20:23;;;;;;;5.43;4.35;;;;;;;11.54;100.00;101778.47;5246321;28;20083;-77
2023/02/17 04:22:54;;;;;;;5.10;4.50;;;;;;;11.63;100.00;101780.41;5248032;28;20474;-76
2023/02/17 04:25:26;;;;;;;4.95;4.43;;;;;;;11.58;100.00;101777.28;5248649;28;20025;-77
2023/02/17 04:27:57;;;;;;;5.53;4.63;;;;;;;11.60;100.00;101788.50;5243741;28;20032;-77
2023/02/17 04:30:28;;;;;;;5.38;4.53;;;;;;;11.57;100.00;101772.16;5245174;28;20021;-77
2023/02/17 04:33:00;;;;;;;5.78;4.38;;;;;;;11.61;100.00;101789.34;5245793;28;20025;-76
2023/02/17 04:35:31;;;;;;;5.97;4.78;;;;;;;11.61;100.00;101781.47;5244060;28;20056;-77
2023/02/17 04:38:03;;;;;;;5.47;4.18;;;;;;;11.61;100.00;101781.47;5241342;28;20156;-77
2023/02/17 04:40:35;;;;;;;5.38;3.88;;;;;;;11.61;100.00;101784.94;5244504;28;20030;-77
2023/02/17 04:43:07;;;;;;;5.82;4.70;;;;;;;11.59;100.00;101791.25;5242662;28;20386;-77
2023/02/17 04:45:38;;;;;;;5.07;4.30;;;;;;;11.63;100.00;101782.19;5244890;28;20029;-76
2023/02/17 04:48:09;;;;;;;5.88;4.40;;;;;;;11.64;100.00;101786.50;5244167;28;20028;-76
2023/02/17 04:50:41;;;;;;;6.70;4.85;;;;;;;11.64;100.00;101781.25;5245013;28;20029;-77
2023/02/17 04:53:12;;;;;;;5.22;4.47;;;;;;;11.61;100.00;101782.31;5243182;28;20025;-77
2023/02/17 04:55:51;;;;;;;5.50;4.75;;;;;;;11.70;100.00;101783.41;5224163;28;20128;-77
2023/02/17 04:58:22;;;;;;;5.63;4.40;;;;;;;11.67;100.00;101783.66;5220592;28;20104;-77
2023/02/17 05:00:58;;;;;;;5.65;4.07;;;;;;;11.74;100.00;101787.47;5224373;28;20601;-77
2023/02/17 05:03:29;;;;;;;5.53;4.43;;;;;;;11.75;100.00;101788.34;5226207;28;20021;-77
2023/02/17 05:06:01;;;;;;;5.90;4.55;;;;;;;11.63;100.00;101776.94;5227510;28;20198;-77
2023/02/17 05:08:32;;;;;;;4.88;4.18;;;;;;;11.69;100.00;101766.00;5239905;22;20022;-74
2023/02/17 05:11:03;;;;;;;4.93;4.43;;;;;;;11.64;100.00;101770.75;5230208;28;20432;-74
2023/02/17 05:13:34;;;;;;;5.78;4.30;;;;;;;11.61;100.00;101758.69;5230104;28;20422;-73
2023/02/17 05:16:06;;;;;;;6.15;4.00;;;;;;;11.59;100.00;101759.75;5231050;28;20029;-73
2023/02/17 05:18:37;;;;;;;5.50;4.50;;;;;;;11.57;100.00;101751.16;5225555;28;20026;-74
2023/02/17 05:21:08;;;;;;;4.82;4.32;;;;;;;11.60;100.00;101767.53;5229675;28;20034;-73
2023/02/17 05:23:40;;;;;;;5.07;4.53;;;;;;;11.59;100.00;101763.22;5229969;28;20037;-73
2023/02/17 05:26:11;;;;;;;6.47;4.63;;;;;;;11.53;100.00;101747.09;5231438;28;20108;-73
2023/02/17 05:28:43;;;;;;;6.28;4.15;;;;;;;11.52;100.00;101751.50;5230663;28;20028;-73
2023/02/17 05:31:14;;;;;;;5.18;4.47;;;;;;;11.54;100.00;101757.47;5231247;28;20033;-73
2023/02/17 05:33:45;;;;;;;6.32;4.47;;;;;;;11.61;100.00;101745.56;5230944;28;20531;-73
2023/02/17 05:36:16;;;;;;;5.50;5.00;;;;;;;11.71;100.00;101758.84;5232107;28;20041;-73
2023/02/17 05:38:48;;;;;;;7.20;4.78;;;;;;;11.71;100.00;101765.88;5234049;28;20087;-73
2023/02/17 05:41:20;;;;;;;7.55;5.10;;;;;;;11.59;100.00;101765.00;5227234;28;20033;-73
2023/02/17 05:43:51;;;;;;;5.25;4.75;;;;;;;11.63;100.00;101779.56;5229913;28;20025;-74
2023/02/17 05:46:22;;;;;;;5.13;4.63;;;;;;;11.63;100.00;101790.06;5227008;28;20100;-73
2023/02/17 05:48:54;;;;;;;7.15;5.13;;;;;;;11.62;100.00;101780.53;5232150;28;20030;-73
2023/02/17 05:51:25;;;;;;;6.20;5.47;;;;;;;11.53;100.00;101781.22;5229778;28;20422;-73
2023/02/17 05:53:56;;;;;;;6.18;5.13;;;;;;;11.49;100.00;101777.16;5231764;28;20056;-72
2023/02/17 05:56:28;;;;;;;5.80;4.93;;;;;;;11.57;100.00;101772.16;5222613;28;20071;-73
2023/02/17 05:58:59;;;;;;;8.02;5.80;;;;;;;11.53;100.00;101776.78;5229611;28;20041;-72
2023/02/17 06:01:31;;;;;;;7.65;5.95;;;;;;;11.48;100.00;101764.94;5228158;28;20101;-73
2023/02/17 06:04:03;;;;;;;6.57;5.32;;;;;;;11.48;100.00;101771.06;5227294;28;20148;-73
2023/02/17 06:06:36;;;;;;;5.70;5.10;;;;;;;11.54;100.00;101778.47;5230010;28;20148;-72
2023/02/17 06:09:07;;;;;;;8.02;5.90;;;;;;;11.57;100.00;101769.53;5228063;28;20128;-73
2023/02/17 06:11:38;;;;;;;7.82;6.35;;;;;;;11.58;100.00;101765.94;5227916;28;20044;-72
2023/02/17 06:14:09;;;;;;;8.43;5.85;;;;;;;11.56;100.00;101763.44;5228146;28;20523;-73
2023/02/17 06:16:41;;;;;;;9.15;6.10;;;;;;;11.62;100.00;101762.97;5224139;28;20029;-72
2023/02/17 06:19:12;;;;;;;9.30;6.53;;;;;;;11.62;100.00;101767.41;5225197;28;20398;-72
2023/02/17 06:21:43;;;;;;;10.07;6.15;;;;;;;11.62;100.00;101760.34;5226222;28;20062;-73
2023/02/17 06:24:15;;;;;;;8.82;6.30;;;;;;;11.59;100.00;101759.75;5229716;28;20029;-73
2023/02/17 06:26:46;;;;;;;10.68;7.28;;;;;;;11.52;100.00;101755.94;5228617;28;20032;-74
2023/02/17 06:29:17;;;;;;;9.23;6.60;;;;;;;11.55;100.00;101753.88;5226385;28;20030;-73
2023/02/17 06:31:48;;;;;;;11.77;7.50;;;;;;;11.56;100.00;101755.56;5226599;28;20703;-73
2023/02/17 06:34:20;;;;;;;9.10;6.93;;;;;;;11.61;100.00;101765.72;5209131;28;20048;-73
2023/02/17 06:36:51;;;;;;;9.65;7.22;;;;;;;11.53;100.00;101762.84;5226869;28;20099;-73
2023/02/17 06:39:22;;;;;;;10.52;7.30;;;;;;;11.65;100.00;101764.53;5231269;28;20036;-73
2023/02/17 06:41:54;;;;;;;9.35;7.20;;;;;;;11.56;100.00;101754.75;5228854;28;20028;-73
2023/02/17 06:44:25;;;;;;;10.50;7.57;;;;;;;11.65;100.00;101748.78;5215959;28;20021;-71
2023/02/17 06:46:58;;;;;;;9.73;7.72;;;;;;;11.63;100.00;101748.94;5233261;28;20028;-73
2023/02/17 06:49:29;;;;;;;10.80;7.72;;;;;;;11.64;100.00;101749.75;5235540;28;20436;-72
2023/02/17 06:52:00;;;;;;;8.88;7.68;;;;;;;11.66;100.00;101748.66;5223484;28;20036;-72
2023/02/17 06:54:32;;;;;;;9.95;8.07;;;;;;;11.63;100.00;101740.19;5222095;28;20032;-72
2023/02/17 06:57:03;;;;;;;8.63;7.03;;;;;;;11.65;100.00;101735.69;5227981;28;20028;-72
2023/02/17 06:59:34;;;;;;;8.05;7.00;;;;;;;11.69;100.00;101755.50;5230858;28;20393;-72
2023/02/17 07:02:06;;;;;;;11.27;7.82;;;;;;;11.64;100.00;101752.38;5232777;28;20036;-72
2023/02/17 07:04:41;;;;;;;10.98;8.07;;;;;;;11.70;100.00;101767.66;5232740;28;20121;-73
2023/02/17 07:07:12;;;;;;;8.02;7.22;;;;;;;11.69;100.00;101771.25;5231349;28;20025;-72
2023/02/17 07:09:43;;;;;;;9.25;7.53;;;;;;;11.70;100.00;101775.53;5225569;28;20383;-73
2023/02/17 07:12:15;;;;;;;8.75;7.75;;;;;;;11.72;100.00;101773.63;5231463;28;20018;-71
2023/02/17 07:14:46;;;;;;;9.48;7.43;;;;;;;11.74;100.00;101769.09;5230008;28;20037;-73
2023/02/17 07:17:17;;;;;;;10.32;8.13;;;;;;;11.76;100.00;101769.84;5232051;28;20390;-72
2023/02/17 07:19:49;;;;;;;10.35;7.82;;;;;;;11.75;100.00;101777.84;5231928;28;20028;-72
2023/02/17 07:22:20;;;;;;;9.40;7.90;;;;;;;11.78;100.00;101770.56;5231916;28;20039;-72
2023/02/17 07:24:51;;;;;;;9.45;7.18;;;;;;;11.76;100.00;101772.47;5229958;28;20044;-72
2023/02/17 07:27:23;;;;;;;10.75;8.00;;;;;;;11.78;100.00;101767.06;5231880;28;20591;-72
2023/02/17 07:29:54;;;;;;;9.73;7.70;;;;;;;11.80;100.00;101762.56;5232517;28;20666;-72
2023/02/17 07:32:25;;;;;;;8.38;7.13;;;;;;;11.85;100.00;101750.78;5231856;28;20021;-72
2023/02/17 07:34:57;;;;;;;7.28;6.28;;;;;;;11.82;100.00;101755.38;5231773;28;20418;-73
2023/02/17 07:37:28;;;;;;;9.82;7.32;;;;;;;11.80;100.00;101752.06;5229675;28;20040;-73
2023/02/17 07:39:59;;;;;;;8.82;7.18;;;;;;;11.89;100.00;101757.50;5234668;28;20037;-73
2023/02/17 07:42:31;;;;;;;8.45;7.10;;;;;;;11.91;100.00;101747.69;5226719;28;20026;-73
2023/02/17 07:45:02;;;;;;;9.13;7.82;;;;;;;11.92;100.00;101746.75;5231474;28;20041;-73
2023/02/17 07:47:34;;;;;;;8.82;7.78;;;;;;;11.97;100.00;101745.56;5211055;28;20576;-73
2023/02/17 07:50:06;;;;;;;9.15;7.70;;;;;;;12.04;100.00;101742.34;5226158;28;20021;-72
2023/02/17 07:52:37;;;;;;;8.45;7.60;;;;;;;11.99;100.00;101738.41;5231049;28;20029;-73
2023/02/17 07:55:08;;;;;;;10.63;7.40;;;;;;;12.11;100.00;101753.22;5230324;28;20029;-73
2023/02/17 07:57:40;;;;;;;10.88;7.15;;;;;;;12.10;100.00;101760.25;5233227;28;20029;-73
2023/02/17 08:00:11;;;;;;;7.68;6.43;;;;;;;12.15;100.00;101759.91;5225732;28;20026;-73
2023/02/17 08:02:43;;;;;;;9.07;6.60;;;;;;;12.16;100.00;101748.47;5209972;28;20037;-73
2023/02/17 08:05:14;;;;;;;8.93;7.15;;;;;;;12.18;100.00;101755.25;5226611;28;20079;-72
2023/02/17 08:07:45;;;;;;;7.20;6.47;;;;;;;12.12;100.00;101765.38;5220498;28;20025;-73
2023/02/17 08:13:19;;;;;;;7.65;6.93;;;;;;;12.17;100.00;101750.13;5228343;28;20037;-73
2023/02/17 08:15:51;;;;;;;7.32;6.55;;;;;;;12.18;100.00;101750.00;5216954;28;20037;-72
2023/02/17 08:18:22;;;;;;;7.13;6.35;;;;;;;12.24;100.00;101746.06;5230354;28;20469;-72
2023/02/17 08:20:53;;;;;;;8.02;6.70;;;;;;;12.16;100.00;101748.47;5226692;28;20386;-73
2023/02/17 08:23:25;;;;;;;10.25;6.38;;;;;;;12.28;100.00;101752.75;5225585;28;20120;-72
2023/02/17 08:25:58;;;;;;;7.90;6.40;;;;;;;12.27;100.00;101750.25;5225650;28;20029;-73
2023/02/17 08:28:29;;;;;;;;;;;;;;;12.70;100.00;101752.16;5227368;28;20022;-73
2023/02/17 08:31:01;;;;;;;7.43;6.67;;;;;;;12.28;100.00;101758.03;5229804;28;19920;-73
2023/02/17 08:33:32;;;;;;;9.75;6.55;;;;;;;12.34;100.00;101754.91;5219128;28;20291;-73
2023/02/17 08:36:07;;;;;;;6.78;6.05;;;;;;;12.32;100.00;101767.34;5225286;28;20021;-73
2023/02/17 08:38:39;;;;;;;6.43;5.82;;;;;;;12.38;100.00;101777.34;5227879;28;20025;-73
2023/02/17 08:41:20;;;;;;;6.50;5.80;;;;;;;12.41;100.00;101766.59;5222489;28;20094;-73
2023/02/17 08:43:51;;;;;;;6.72;6.05;;;;;;;12.37;100.00;101775.69;5208129;28;20402;-73
2023/02/17 08:46:23;;;;;;;7.45;6.72;;;;;;;12.34;100.00;101764.56;5225918;28;20030;-72
2023/02/17 08:48:55;;;;;;;6.97;6.28;;;;;;;12.37;100.00;101769.59;5225432;28;20037;-73
2023/02/17 08:51:27;;;;;;;8.20;6.70;;;;;;;12.51;100.00;101764.09;5222176;28;20033;-73
2023/02/17 08:53:59;;;;;;;7.35;6.65;;;;;;;12.55;100.00;101780.47;5229180;28;20095;-73
2023/02/17 08:56:31;;;;;;;6.45;5.85;;;;;;;12.51;100.00;101774.63;5227001;28;20023;-72
2023/02/17 08:59:04;;;;;;;7.32;6.60;;;;;;;12.59;100.00;101763.50;5212877;28;20048;-74
2023/02/17 09:01:37;;;;;;;6.65;6.05;;;;;;;12.68;100.00;101761.94;5226833;28;20021;-73
2023/02/17 09:04:11;;;;;;;5.93;5.40;;;;;;;12.70;100.00;101771.38;5224873;28;20041;-74
2023/02/17 09:06:48;;;;;;;6.75;5.72;;;;;;;12.81;100.00;101778.44;5219496;28;20136;-73
2023/02/17 09:09:21;;;;;;;6.72;6.00;;;;;;;12.76;100.00;101777.94;5216673;28;20120;-72
2023/02/17 09:11:54;;;;;;;;;;;;;;;13.19;100.00;101777.16;5219262;28;20394;-74
2023/02/17 09:14:26;;;;;;;6.60;5.93;;;;;;;12.77;100.00;101777.84;5227717;28;19921;-73
2023/02/17 09:16:58;;;;;;;6.22;5.63;;;;;;;12.87;100.00;101791.91;5228315;28;20025;-73
2023/02/17 09:19:29;;;;;;;5.95;5.40;;;;;;;12.88;100.00;101793.59;5225044;28;20027;-73
2023/02/17 09:22:00;;;;;;;5.70;5.10;;;;;;;12.96;100.00;101802.69;5222812;28;20037;-73
2023/02/17 09:24:33;;;;;;;6.18;5.15;;;;;;;13.02;100.00;101815.31;5225110;28;20408;-72
2023/02/17 09:27:05;;;;;;;5.57;5.05;;;;;;;13.04;100.00;101821.31;5223842;28;20041;-73
2023/02/17 09:29:37;;;;;;;6.18;5.53;;;;;;;13.06;100.00;101819.38;5225120;28;20025;-73
2023/02/17 09:32:08;;;;;;;6.68;6.07;;;;;;;13.05;100.00;101822.97;5224141;28;20026;-73
2023/02/17 09:34:47;;;;;;;6.50;5.90;;;;;;;13.11;100.00;101818.06;5225970;28;20036;-72
2023/02/17 09:37:18;;;;;;;6.25;5.30;;;;;;;13.14;100.00;101812.56;5226235;28;20100;-73
2023/02/17 09:39:50;;;;;;;5.95;5.35;;;;;;;13.11;100.00;101827.75;5222660;28;20033;-73
2023/02/17 09:42:24;;;;;;;7.32;6.63;;;;;;;13.21;100.00;101814.69;5227167;28;20048;-73
2023/02/17 09:45:05;;;;;;;5.95;5.25;;;;;;;13.41;100.00;101803.44;5230879;28;20033;-73
2023/02/17 09:47:42;;;;;;;5.88;5.38;;;;;;;13.35;100.00;101804.75;5225249;28;20080;-73
2023/02/17 09:50:20;;;;;;;5.30;4.80;;;;;;;13.47;100.00;101823.97;5226605;28;20116;-73
2023/02/17 09:53:00;;;;;;;5.45;4.95;;;;;;;13.38;100.00;101832.63;5227974;28;20025;-73
2023/02/17 09:55:45;;;;;;;5.85;5.35;;;;;;;13.41;100.00;101810.47;5226163;28;20057;-73
2023/02/17 09:58:24;;;;;;;6.28;5.78;;;;;;;13.35;100.00;101817.06;5229540;28;20487;-73
2023/02/17 10:00:58;;;;;;;6.80;6.20;;;;;;;13.37;100.00;101826.53;5229271;28;20064;-73
2023/02/17 10:03:35;;;;;;;7.07;6.38;;;;;;;13.37;100.00;101833.56;5210107;28;20033;-73
2023/02/17 10:06:28;;;;;;;7.18;6.57;;;;;;;13.57;100.00;101834.59;5229914;28;20021;-73
2023/02/17 10:09:29;;;;;;;6.57;5.97;;;;;;;13.58;100.00;101825.72;5229923;28;20077;-73
2023/02/17 10:12:02;;;;;;;7.07;6.47;;;;;;;13.43;100.00;101832.25;5231219;28;20491;-73
2023/02/17 10:14:46;;;;;;;6.65;6.05;;;;;;;13.52;100.00;101831.50;5228612;28;20040;-73
2023/02/17 10:17:36;;;;;;;6.78;6.25;;;;;;;13.62;100.00;101837.69;5229170;28;20116;-73
2023/02/17 10:20:41;;;;;;;6.53;5.93;;;;;;;13.67;100.00;101827.59;5232646;28;20040;-73
2023/02/17 10:23:18;;;;;;;7.63;6.93;;;;;;;13.68;100.00;101828.47;5232102;28;20037;-73
2023/02/17 10:26:08;;;;;;;8.98;7.07;;;;;;;13.88;100.00;101817.94;5223939;28;20152;-73
2023/02/17 10:28:54;;;;;;;6.95;6.28;;;;;;;13.85;100.00;101835.78;5228482;28;20037;-73
2023/02/17 10:31:47;;;;;;;8.65;7.85;;;;;;;14.06;100.00;101818.19;5228739;28;20825;-73
2023/02/17 10:34:35;;;;;;;7.40;6.75;;;;;;;14.14;100.00;101822.81;5228006;28;20044;-73
2023/02/17 10:37:17;;;;;;;7.25;6.55;;;;;;;14.09;100.00;101822.34;5222535;28;20624;-73
2023/02/17 10:39:52;;;;;;;7.93;6.85;;;;;;;14.04;100.00;101832.47;5227320;28;20060;-74
2023/02/17 10:42:32;;;;;;;6.35;5.85;;;;;;;13.88;100.00;101848.72;5221622;28;20110;-73
2023/02/17 10:45:30;;;;;;;7.20;6.50;;;;;;;14.09;100.00;101828.50;5224376;28;20037;-73
2023/02/17 10:48:16;;;;;;;7.55;6.07;;;;;;;13.72;100.00;101832.50;5216933;28;20518;-73
2023/02/17 10:50:48;;;;;;;6.40;5.85;;;;;;;13.73;100.00;101849.97;5215500;28;20053;-72
2023/02/17 10:53:27;;;;;;;7.45;6.30;;;;;;;13.92;100.00;101854.56;5216772;28;20025;-73
2023/02/17 10:56:16;;;;;;;6.10;5.50;;;;;;;13.96;100.00;101862.06;5220184;28;20060;-73
2023/02/17 10:59:01;;;;;;;6.03;5.53;;;;;;;13.95;100.00;101864.84;5220766;28;20560;-73
2023/02/17 11:01:35;;;;;;;5.03;4.50;;;;;;;13.88;100.00;101867.16;5218642;28;20075;-73
2023/02/17 11:04:09;;;;;;;5.30;4.80;;;;;;;13.97;100.00;101869.00;5221535;28;20025;-74
2023/02/17 11:06:50;;;;;;;4.97;3.95;;;;;;;14.00;100.00;101870.56;5225445;28;20379;-74
2023/02/17 11:09:31;;;;;;;4.60;4.20;;;;;;;14.07;100.00;101871.72;5227658;28;20406;-73
2023/02/17 11:12:10;;;;;;;5.15;3.95;;;;;;;13.96;100.00;101869.16;5229911;28;20041;-73
2023/02/17 11:14:47;;;;;;;5.55;4.97;;;;;;;13.97;100.00;101839.19;5226060;28;20033;-74
2023/02/17 11:17:38;;;;;;;5.78;5.18;;;;;;;13.85;100.00;101857.69;5222318;28;20029;-73
2023/02/17 11:20:12;;;;;;;6.03;4.88;;;;;;;13.86;100.00;101863.78;5219476;28;20045;-73
2023/02/17 11:23:05;;;;;;;5.30;4.80;;;;;;;14.04;100.00;101843.00;5229856;28;20030;-73
2023/02/17 11:25:37;;;;;;;5.13;4.70;;;;;;;13.87;100.00;101847.88;5230130;28;20041;-73
2023/02/17 11:28:21;;;;;;;5.88;5.07;;;;;;;13.96;100.00;101837.53;5222706;28;20123;-73
2023/02/17 11:30:56;;;;;;;5.00;4.47;;;;;;;13.96;100.00;101821.72;5227518;28;20385;-73
2023/02/17 11:33:34;;;;;;;5.47;4.97;;;;;;;13.98;100.00;101814.50;5224900;28;20399;-73
2023/02/17 11:36:09;;;;;;;9.07;4.85;;;;;;;13.94;100.00;101837.69;5231387;28;20036;-73
2023/02/17 11:38:45;;;;;;;6.45;4.90;;;;;;;13.88;100.00;101815.28;5228845;28;20091;-73
2023/02/17 11:41:16;;;;;;;5.40;4.90;;;;;;;13.85;100.00;101820.00;5226000;28;20029;-73
2023/02/17 11:43:52;;;;;;;4.68;4.00;;;;;;;14.05;100.00;101824.44;5232904;28;20033;-73
2023/02/17 11:46:37;;;;;;;4.90;4.15;;;;;;;14.21;100.00;101812.59;5214344;28;20087;-73
2023/02/17 11:49:32;;;;;;;4.47;4.07;;;;;;;14.40;100.00;101817.16;5231591;28;20040;-73
2023/02/17 11:52:12;;;;;;;6.43;5.80;;;;;;;14.15;100.00;101813.94;5232114;28;20759;-74